createdAt,value
2022-09-27T00:01:09.647Z,9.48
2022-09-27T00:03:37.791Z,10.50
2022-09-27T00:06:25.941Z,8.43
2022-09-27T00:08:54.391Z,7.90
2022-09-27T00:11:35.550Z,9.73
2022-09-27T00:14:03.415Z,11.20
2022-09-27T00:16:32.411Z,8.63
2022-09-27T00:19:02.721Z,8.65
2022-09-27T00:21:30.863Z,10.88
2022-09-27T00:23:59.515Z,8.85
2022-09-27T00:26:27.603Z,9.25
2022-09-27T00:28:55.389Z,10.70
2022-09-27T00:31:30.495Z,9.30
2022-09-27T00:33:59.847Z,8.88
2022-09-27T00:36:27.634Z,9.32
2022-09-27T00:38:55.442Z,10.82
2022-09-27T00:41:25.636Z,9.60
2022-09-27T00:43:55.315Z,9.05
2022-09-27T00:46:33.534Z,8.35
2022-09-27T00:49:41.872Z,9.70
2022-09-27T00:52:17.232Z,11.77
2022-09-27T00:54:45.887Z,10.17
2022-09-27T00:57:13.566Z,9.32
2022-09-27T00:59:48.195Z,8.48
2022-09-27T01:02:15.926Z,8.25
2022-09-27T01:04:46.484Z,8.65
2022-09-27T01:07:14.695Z,10.27
2022-09-27T01:09:42.072Z,9.02
2022-09-27T01:12:28.664Z,9.30
2022-09-27T01:15:03.274Z,11.07
2022-09-27T01:18:02.903Z,8.93
2022-09-27T01:20:45.906Z,7.97
2022-09-27T01:23:35.581Z,8.43
2022-09-27T01:26:31.273Z,9.38
2022-09-27T01:29:18.519Z,9.27
2022-09-27T01:32:03.329Z,9.00
2022-09-27T01:34:55.911Z,8.67
2022-09-27T01:37:29.779Z,9.43
2022-09-27T01:40:24.859Z,10.70
2022-09-27T01:43:33.831Z,9.95
2022-09-27T01:46:28.465Z,8.88
2022-09-27T01:49:23.708Z,8.23
2022-09-27T01:51:54.302Z,9.15
2022-09-27T01:54:29.409Z,9.98
2022-09-27T01:57:35.999Z,11.77
2022-09-27T02:00:10.518Z,9.40
2022-09-27T02:02:44.849Z,10.70
2022-09-27T02:05:48.048Z,9.70
2022-09-27T02:08:37.267Z,9.18
2022-09-27T02:11:12.731Z,7.93
2022-09-27T02:13:48.991Z,8.65
2022-09-27T02:17:00.650Z,8.00
2022-09-27T02:19:43.591Z,8.73
2022-09-27T02:22:37.579Z,8.02
2022-09-27T02:25:27.409Z,7.53
2022-09-27T02:28:30.639Z,8.60
2022-09-27T02:30:58.383Z,15.57
2022-09-27T02:34:11.868Z,12.40
2022-09-27T02:36:39.701Z,15.68
2022-09-27T02:39:08.108Z,11.38
2022-09-27T02:41:36.512Z,11.95
2022-09-27T02:44:06.222Z,11.40
2022-09-27T02:46:55.934Z,9.98
2022-09-27T02:49:48.412Z,11.30
2022-09-27T02:52:55.546Z,11.15
2022-09-27T02:55:52.607Z,11.43
2022-09-27T02:59:10.313Z,11.97
2022-09-27T03:02:13.804Z,11.95
2022-09-27T03:05:10.801Z,13.30
2022-09-27T03:07:47.715Z,12.45
2022-09-27T03:10:24.391Z,12.63
2022-09-27T03:12:54.735Z,12.10
2022-09-27T03:15:26.308Z,13.48
2022-09-27T03:18:14.006Z,12.35
2022-09-27T03:21:11.843Z,11.00
2022-09-27T03:23:40.700Z,15.32
2022-09-27T03:26:12.784Z,15.23
2022-09-27T03:28:45.349Z,12.38
2022-09-27T03:31:15.761Z,11.70
2022-09-27T03:33:50.439Z,15.55
2022-09-27T03:36:21.162Z,17.48
2022-09-27T03:38:51.576Z,19.67
2022-09-27T03:41:21.435Z,14.05
2022-09-27T03:43:51.030Z,15.07
2022-09-27T03:46:20.678Z,16.63
2022-09-27T03:48:48.892Z,15.25
2022-09-27T03:51:18.058Z,13.47
2022-09-27T03:53:45.861Z,12.95
2022-09-27T03:56:21.065Z,14.05
2022-09-27T03:58:49.085Z,12.60
2022-09-27T04:01:19.994Z,12.38
2022-09-27T04:03:54.879Z,13.13
2022-09-27T04:06:35.179Z,10.98
2022-09-27T04:09:05.213Z,13.77
2022-09-27T04:11:52.686Z,10.82
2022-09-27T04:14:21.516Z,12.02
2022-09-27T04:17:13.249Z,10.37
2022-09-27T04:20:11.902Z,13.20
2022-09-27T04:22:44.466Z,12.55
2022-09-27T04:25:14.502Z,14.70
2022-09-27T04:27:46.235Z,14.13
2022-09-27T04:30:15.879Z,12.70
2022-09-27T04:33:03.494Z,14.02
2022-09-27T04:36:06.247Z,16.42
2022-09-27T04:38:40.194Z,14.43
2022-09-27T04:41:11.437Z,16.70
2022-09-27T04:43:43.202Z,14.70
2022-09-27T04:46:14.402Z,14.85
2022-09-27T04:48:48.084Z,16.40
2022-09-27T04:51:19.005Z,15.68
2022-09-27T04:53:48.580Z,20.90
2022-09-27T04:56:16.605Z,15.77
2022-09-27T04:58:45.415Z,17.60
2022-09-27T05:01:16.714Z,15.68
2022-09-27T05:03:47.872Z,13.20
2022-09-27T05:06:16.500Z,15.75
2022-09-27T05:08:46.347Z,14.13
2022-09-27T05:11:20.566Z,12.55
2022-09-27T05:14:09.412Z,15.32
2022-09-27T05:16:55.810Z,11.32
2022-09-27T05:19:51.137Z,12.15
2022-09-27T05:22:33.076Z,12.90
2022-09-27T05:25:02.882Z,10.85
2022-09-27T05:27:32.162Z,9.85
2022-09-27T05:30:02.140Z,10.00
2022-09-27T05:32:50.356Z,12.55
2022-09-27T05:35:45.547Z,12.20
2022-09-27T05:38:14.763Z,11.25
2022-09-27T05:40:51.136Z,11.18
2022-09-27T05:43:22.198Z,13.77
2022-09-27T05:45:52.504Z,17.63
2022-09-27T05:48:22.336Z,13.27
2022-09-27T05:50:59.187Z,11.35
2022-09-27T05:53:30.416Z,11.63
2022-09-27T05:56:07.647Z,11.05
2022-09-27T05:58:54.397Z,11.30
2022-09-27T06:01:30.145Z,10.75
2022-09-27T06:04:16.892Z,12.17
2022-09-27T06:07:03.675Z,10.55
2022-09-27T06:09:34.470Z,10.95
2022-09-27T06:12:02.343Z,10.90
2022-09-27T06:14:30.609Z,10.63
2022-09-27T06:17:08.298Z,12.10
2022-09-27T06:19:39.276Z,14.35
2022-09-27T06:22:07.615Z,12.70
2022-09-27T06:24:50.071Z,14.57
2022-09-27T06:27:22.475Z,11.68
2022-09-27T06:30:16.891Z,11.07
2022-09-27T06:33:01.887Z,10.25
2022-09-27T06:35:37.373Z,11.20
2022-09-27T06:38:07.816Z,12.10
2022-09-27T06:40:36.582Z,10.48
2022-09-27T06:43:38.686Z,12.00
2022-09-27T06:46:21.859Z,11.55
2022-09-27T06:49:26.495Z,11.73
2022-09-27T06:51:55.749Z,12.35
2022-09-27T06:54:24.879Z,10.95
2022-09-27T06:57:00.303Z,12.30
2022-09-27T06:59:50.274Z,9.60
2022-09-27T07:02:38.710Z,10.27
2022-09-27T07:05:33.991Z,9.68
2022-09-27T07:08:37.404Z,9.63
2022-09-27T07:11:15.219Z,9.33
2022-09-27T07:13:43.832Z,11.23
2022-09-27T07:16:19.766Z,9.80
2022-09-27T07:18:50.704Z,10.05
2022-09-27T07:21:26.000Z,9.70
2022-09-27T07:24:06.115Z,11.13
2022-09-27T07:26:37.646Z,9.93
2022-09-27T07:29:12.975Z,10.02
2022-09-27T07:32:05.167Z,9.07
2022-09-27T07:34:43.937Z,9.98
2022-09-27T07:37:19.561Z,10.40
2022-09-27T07:39:51.725Z,11.45
2022-09-27T07:42:24.266Z,10.70
2022-09-27T07:45:06.149Z,11.98
2022-09-27T07:48:02.221Z,12.82
2022-09-27T07:50:56.587Z,13.07
2022-09-27T07:53:58.216Z,11.68
2022-09-27T07:56:37.391Z,12.15
2022-09-27T07:59:08.594Z,11.80
2022-09-27T08:01:51.509Z,13.57
2022-09-27T08:04:21.068Z,13.90
2022-09-27T08:06:56.354Z,12.88
2022-09-27T08:09:26.777Z,13.55
2022-09-27T08:12:00.343Z,12.40
2022-09-27T08:14:42.997Z,13.88
2022-09-27T08:17:23.077Z,14.50
2022-09-27T08:20:13.282Z,14.15
2022-09-27T08:23:09.896Z,17.02
2022-09-27T08:25:54.974Z,14.27
2022-09-27T08:28:31.886Z,15.82
2022-09-27T08:31:20.019Z,15.07
2022-09-27T08:33:54.951Z,17.20
2022-09-27T08:36:26.967Z,18.90
2022-09-27T08:39:23.934Z,21.00
2022-09-27T08:42:23.592Z,20.02
2022-09-27T08:45:29.441Z,15.25
2022-09-27T08:48:07.077Z,14.67
2022-09-27T08:50:44.766Z,17.23
2022-09-27T08:53:15.308Z,15.02
2022-09-27T08:56:03.343Z,13.68
2022-09-27T08:58:52.439Z,18.17
2022-09-27T09:01:32.131Z,18.60
2022-09-27T09:04:06.197Z,22.00
2022-09-27T09:06:48.022Z,30.67
2022-09-27T09:09:44.467Z,23.98
2022-09-27T09:13:09.258Z,30.70
2022-09-27T09:16:29.050Z,16.37
2022-09-27T09:19:12.711Z,14.95
2022-09-27T09:22:08.374Z,16.13
2022-09-27T09:24:54.987Z,10.00
2022-09-27T09:27:38.966Z,9.57
2022-09-27T09:30:21.110Z,6.43
2022-09-27T09:33:26.840Z,6.88
2022-09-27T09:36:17.693Z,6.18
2022-09-27T09:39:13.851Z,5.78
2022-09-27T09:42:01.214Z,5.07
2022-09-27T09:44:42.667Z,7.82
2022-09-27T09:47:44.241Z,7.93
2022-09-27T09:50:30.758Z,6.47
2022-09-27T09:53:25.131Z,6.40
2022-09-27T09:56:45.266Z,5.90
2022-09-27T09:59:53.209Z,7.85
2022-09-27T10:02:35.834Z,6.03
2022-09-27T10:05:17.134Z,5.87
2022-09-27T10:08:00.998Z,8.20
2022-09-27T10:10:51.078Z,6.75
2022-09-27T10:13:42.205Z,7.53
2022-09-27T10:16:36.019Z,6.43
2022-09-27T10:19:12.497Z,6.10
2022-09-27T10:21:45.401Z,6.47
2022-09-27T10:24:18.448Z,7.72
2022-09-27T10:27:12.652Z,5.55
2022-09-27T10:29:47.080Z,6.45
2022-09-27T10:32:37.787Z,5.43
2022-09-27T10:35:30.836Z,5.18
2022-09-27T10:38:22.063Z,5.07
2022-09-27T10:41:00.273Z,6.07
2022-09-27T10:46:36.305Z,17.05
2022-09-27T10:49:31.685Z,8.00
2022-09-27T10:52:06.822Z,7.80
2022-09-27T10:54:38.261Z,6.90
2022-09-27T10:57:15.715Z,7.57
2022-09-27T10:59:45.273Z,6.20
2022-09-27T11:02:32.871Z,6.13
2022-09-27T11:05:26.808Z,4.63
2022-09-27T11:07:58.535Z,2.08
2022-09-27T11:11:03.987Z,4.25
2022-09-27T11:13:33.841Z,4.43
2022-09-27T11:16:14.658Z,5.93
2022-09-27T11:19:10.854Z,4.88
2022-09-27T11:21:52.232Z,4.72
2022-09-27T11:24:44.675Z,5.07
2022-09-27T11:27:22.986Z,4.70
2022-09-27T11:30:10.099Z,7.57
2022-09-27T11:33:10.244Z,4.20
2022-09-27T11:36:00.540Z,2.55
2022-09-27T11:39:04.412Z,3.70
2022-09-27T11:41:44.657Z,4.07
2022-09-27T11:44:38.334Z,4.00
2022-09-27T11:47:16.444Z,5.78
2022-09-27T11:50:16.150Z,5.60
2022-09-27T11:53:45.769Z,5.50
2022-09-27T11:56:23.816Z,7.70
2022-09-27T11:59:24.541Z,6.57
2022-09-27T12:02:12.267Z,6.45
2022-09-27T12:04:56.909Z,8.60
2022-09-27T12:07:34.766Z,6.35
2022-09-27T12:10:05.329Z,8.30
2022-09-27T12:12:35.696Z,7.57
2022-09-27T12:15:07.475Z,8.02
2022-09-27T12:17:39.097Z,8.57
2022-09-27T12:20:24.814Z,8.60
2022-09-27T12:23:00.984Z,7.03
2022-09-27T12:25:42.028Z,6.63
2022-09-27T12:28:37.243Z,5.45
2022-09-27T12:31:28.492Z,4.78
2022-09-27T12:34:19.813Z,5.38
2022-09-27T12:37:13.183Z,5.43
2022-09-27T12:40:12.884Z,6.40
2022-09-27T12:42:43.584Z,6.28
2022-09-27T12:45:35.977Z,4.63
2022-09-27T12:48:12.958Z,5.45
2022-09-27T12:50:45.067Z,6.00
2022-09-27T12:53:25.634Z,7.13
2022-09-27T12:56:17.617Z,4.65
2022-09-27T12:59:12.488Z,8.48
2022-09-27T13:01:59.825Z,8.90
2022-09-27T13:05:08.715Z,8.10
2022-09-27T13:07:58.468Z,7.40
2022-09-27T13:10:51.867Z,4.95
2022-09-27T13:13:36.583Z,6.40
2022-09-27T13:16:06.021Z,7.25
2022-09-27T13:18:50.233Z,5.97
2022-09-27T13:21:51.771Z,5.10
2022-09-27T13:24:43.915Z,5.05
2022-09-27T13:27:28.778Z,8.90
2022-09-27T13:30:12.932Z,6.65
2022-09-27T13:33:08.808Z,6.15
2022-09-27T13:36:17.130Z,5.90
2022-09-27T13:39:06.319Z,6.50
2022-09-27T13:41:46.582Z,5.65
2022-09-27T13:44:51.912Z,7.82
2022-09-27T13:47:27.747Z,8.38
2022-09-27T13:50:12.949Z,8.67
2022-09-27T13:52:57.544Z,6.82
2022-09-27T13:55:48.508Z,7.82
2022-09-27T13:59:01.786Z,6.32
2022-09-27T14:01:50.123Z,8.70
2022-09-27T14:04:25.092Z,6.90
2022-09-27T14:06:55.528Z,7.70
2022-09-27T14:09:35.923Z,9.40
2022-09-27T14:12:24.986Z,8.32
2022-09-27T14:14:53.359Z,7.85
2022-09-27T14:17:20.857Z,9.20
2022-09-27T14:19:50.792Z,8.65
2022-09-27T14:22:20.539Z,8.75
2022-09-27T14:25:16.935Z,8.07
2022-09-27T14:27:46.070Z,7.97
2022-09-27T14:30:23.572Z,9.50
2022-09-27T14:33:01.843Z,8.38
2022-09-27T14:35:57.965Z,9.60
2022-09-27T14:38:39.312Z,8.63
2022-09-27T14:41:18.265Z,9.70
2022-09-27T14:43:46.336Z,8.90
2022-09-27T14:46:30.357Z,8.95
2022-09-27T14:48:59.372Z,10.55
2022-09-27T14:51:30.820Z,17.92
2022-09-27T14:54:01.281Z,7.93
2022-09-27T14:56:37.841Z,9.43
2022-09-27T14:59:11.381Z,8.98
2022-09-27T15:01:40.254Z,8.65
2022-09-27T15:04:08.809Z,7.82
2022-09-27T15:06:36.919Z,9.85
2022-09-27T15:09:05.109Z,10.10
2022-09-27T15:11:33.353Z,9.82
2022-09-27T15:14:02.047Z,9.52
2022-09-27T15:16:31.339Z,9.30
2022-09-27T15:19:17.533Z,6.55
2022-09-27T15:21:45.293Z,8.00
2022-09-27T15:24:38.661Z,7.68
2022-09-27T15:27:18.422Z,7.75
2022-09-27T15:29:53.027Z,6.70
2022-09-27T15:32:24.922Z,9.07
2022-09-27T15:34:52.215Z,8.17
2022-09-27T15:37:27.149Z,6.72
2022-09-27T15:39:54.604Z,8.07
2022-09-27T15:42:22.023Z,11.10
2022-09-27T15:44:50.781Z,11.38
2022-09-27T15:47:37.588Z,8.33
2022-09-27T15:50:16.876Z,9.57
2022-09-27T15:52:50.306Z,8.88
2022-09-27T15:55:25.376Z,8.82
2022-09-27T15:58:02.766Z,14.52
2022-09-27T16:00:30.354Z,19.23
2022-09-27T16:02:57.601Z,18.80
2022-09-27T16:05:24.997Z,17.02
2022-09-27T16:07:52.291Z,18.40
2022-09-27T16:10:27.658Z,16.23
2022-09-27T16:12:54.963Z,13.73
2022-09-27T16:15:22.343Z,16.35
2022-09-27T16:17:49.833Z,20.15
2022-09-27T16:20:27.026Z,14.80
2022-09-27T16:22:54.786Z,15.00
2022-09-27T16:25:22.290Z,16.67
2022-09-27T16:27:49.596Z,16.58
2022-09-27T16:30:17.258Z,15.80
2022-09-27T16:32:45.689Z,14.45
2022-09-27T16:35:13.553Z,13.70
2022-09-27T16:37:40.900Z,16.10
2022-09-27T16:40:08.829Z,12.23
2022-09-27T16:42:36.313Z,13.82
2022-09-27T16:45:09.708Z,13.65
2022-09-27T16:47:38.681Z,14.00
2022-09-27T16:50:25.090Z,12.77
2022-09-27T16:52:52.603Z,13.00
2022-09-27T16:55:21.213Z,16.48
2022-09-27T16:57:49.083Z,13.52
2022-09-27T17:00:17.080Z,12.40
2022-09-27T17:02:48.419Z,12.93
2022-09-27T17:05:16.201Z,13.43
2022-09-27T17:07:43.459Z,16.85
2022-09-27T17:10:11.141Z,18.13
2022-09-27T17:12:38.414Z,14.95
2022-09-27T17:15:06.161Z,13.47
2022-09-27T17:17:33.586Z,16.80
2022-09-27T17:20:01.035Z,15.63
2022-09-27T17:22:28.269Z,15.43
2022-09-27T17:24:55.477Z,18.20
2022-09-27T17:27:25.887Z,18.03
2022-09-27T17:29:53.691Z,17.60
2022-09-27T17:32:24.377Z,19.20
2022-09-27T17:34:51.957Z,22.33
2022-09-27T17:37:19.389Z,25.98
2022-09-27T17:39:46.664Z,24.90
2022-09-27T17:42:13.986Z,22.33
2022-09-27T17:44:41.279Z,25.05
2022-09-27T17:47:27.043Z,22.55
2022-09-27T17:50:13.284Z,28.42
2022-09-27T17:52:40.544Z,29.43
2022-09-27T17:55:08.187Z,28.10
2022-09-27T17:57:35.472Z,34.72
2022-09-27T18:00:02.913Z,27.95
2022-09-27T18:02:39.929Z,18.27
2022-09-27T18:05:07.651Z,16.17
2022-09-27T18:07:34.971Z,21.10
2022-09-27T18:10:02.358Z,21.92
2022-09-27T18:12:32.257Z,25.98
2022-09-27T18:14:59.563Z,22.88
2022-09-27T18:17:27.967Z,23.13
2022-09-27T18:19:57.113Z,23.25
2022-09-27T18:22:26.592Z,17.15
2022-09-27T18:24:54.146Z,17.63
2022-09-27T18:27:21.952Z,14.38
2022-09-27T18:29:50.003Z,14.67
2022-09-27T18:32:17.557Z,14.07
2022-09-27T18:34:45.685Z,15.00
2022-09-27T18:37:13.126Z,15.52
2022-09-27T18:39:43.692Z,14.98
2022-09-27T18:42:12.142Z,15.33
2022-09-27T18:44:40.666Z,16.92
2022-09-27T18:47:08.267Z,17.85
2022-09-27T18:49:35.906Z,17.38
2022-09-27T18:52:03.527Z,13.40
2022-09-27T18:54:31.216Z,13.33
2022-09-27T18:56:58.874Z,13.10
2022-09-27T18:59:26.643Z,14.45
2022-09-27T19:01:54.057Z,14.15
2022-09-27T19:04:25.982Z,15.27
2022-09-27T19:06:56.154Z,14.03
2022-09-27T19:09:26.524Z,15.95
2022-09-27T19:11:54.221Z,14.20
2022-09-27T19:14:22.716Z,14.77
2022-09-27T19:16:50.691Z,14.43
2022-09-27T19:19:18.974Z,13.63
2022-09-27T19:21:47.586Z,17.00
2022-09-27T19:24:15.898Z,17.48
2022-09-27T19:26:44.982Z,15.65
2022-09-27T19:29:15.531Z,15.43
2022-09-27T19:31:45.046Z,17.70
2022-09-27T19:34:12.705Z,15.60
2022-09-27T19:36:41.038Z,16.73
2022-09-27T19:39:08.698Z,12.57
2022-09-27T19:41:36.286Z,14.48
2022-09-27T19:44:04.075Z,14.23
2022-09-27T19:46:32.044Z,16.08
2022-09-27T19:49:01.101Z,16.65
2022-09-27T19:51:29.424Z,16.75
2022-09-27T19:53:57.115Z,15.55
2022-09-27T19:56:26.595Z,12.20
2022-09-27T19:58:54.409Z,14.95
2022-09-27T20:01:24.314Z,12.48
2022-09-27T20:03:55.347Z,14.20
2022-09-27T20:06:23.284Z,12.85
2022-09-27T20:08:51.239Z,12.90
2022-09-27T20:11:21.219Z,9.32
2022-09-27T20:13:49.587Z,10.23
2022-09-27T20:16:19.299Z,10.13
2022-09-27T20:18:48.496Z,12.00
2022-09-27T20:21:18.688Z,12.57
2022-09-27T20:23:49.018Z,13.25
2022-09-27T20:26:17.015Z,11.63
2022-09-27T20:28:46.379Z,11.93
2022-09-27T20:31:15.473Z,10.10
2022-09-27T20:33:52.449Z,12.03
2022-09-27T20:36:40.221Z,12.23
2022-09-27T20:39:09.644Z,12.52
2022-09-27T20:41:39.160Z,10.20
2022-09-27T20:44:11.353Z,10.18
2022-09-27T20:46:39.466Z,13.23
2022-09-27T20:49:12.219Z,12.13
2022-09-27T20:51:41.245Z,11.45
2022-09-27T20:54:11.244Z,11.57
2022-09-27T20:56:46.446Z,11.77
2022-09-27T20:59:19.419Z,14.03
2022-09-27T21:01:49.551Z,13.25
2022-09-27T21:04:20.281Z,12.75
2022-09-27T21:06:51.503Z,12.85
2022-09-27T21:09:20.160Z,13.18
2022-09-27T21:11:48.530Z,9.60
2022-09-27T21:14:17.214Z,10.55
2022-09-27T21:16:46.049Z,10.73
2022-09-27T21:19:14.081Z,8.25
2022-09-27T21:21:41.741Z,10.10
2022-09-27T21:24:10.970Z,9.57
2022-09-27T21:26:40.307Z,10.10
2022-09-27T21:29:08.874Z,8.27
2022-09-27T21:31:38.531Z,9.30
2022-09-27T21:34:06.747Z,9.90
2022-09-27T21:36:35.552Z,10.20
2022-09-27T21:39:05.419Z,9.50
2022-09-27T21:41:34.652Z,10.75
2022-09-27T21:44:04.480Z,10.00
2022-09-27T21:46:32.080Z,10.85
2022-09-27T21:49:00.489Z,11.63
2022-09-27T21:51:33.304Z,12.13
2022-09-27T21:54:01.921Z,12.57
2022-09-27T21:56:31.730Z,15.20
2022-09-27T21:58:59.512Z,9.73
2022-09-27T22:01:31.222Z,10.73
2022-09-27T22:03:59.152Z,10.60
2022-09-27T22:06:31.189Z,12.77
2022-09-27T22:08:59.357Z,11.27
2022-09-27T22:11:29.347Z,11.35
2022-09-27T22:13:57.421Z,12.60
2022-09-27T22:16:27.079Z,13.38
2022-09-27T22:18:55.521Z,16.95
2022-09-27T22:21:31.726Z,13.98
2022-09-27T22:24:06.504Z,13.73
2022-09-27T22:26:36.559Z,14.57
2022-09-27T22:29:06.291Z,12.60
2022-09-27T22:31:34.054Z,12.35
2022-09-27T22:34:05.013Z,14.65
2022-09-27T22:36:33.633Z,13.85
2022-09-27T22:39:01.391Z,12.63
2022-09-27T22:41:30.933Z,12.25
2022-09-27T22:43:59.110Z,11.30
2022-09-27T22:46:27.628Z,10.95
2022-09-27T22:48:56.152Z,8.52
2022-09-27T22:51:23.821Z,11.33
2022-09-27T22:53:51.551Z,14.60
2022-09-27T22:56:20.228Z,14.05
2022-09-27T22:58:48.521Z,16.88
2022-09-27T23:01:17.514Z,11.07
2022-09-27T23:03:46.393Z,13.07
2022-09-27T23:06:15.531Z,12.05
2022-09-27T23:08:43.410Z,10.55
2022-09-27T23:11:20.142Z,11.60
2022-09-27T23:13:49.179Z,11.85
2022-09-27T23:16:26.963Z,18.50
2022-09-27T23:18:55.771Z,12.57
2022-09-27T23:21:26.469Z,16.40
2022-09-27T23:23:56.354Z,27.55
2022-09-27T23:26:26.883Z,30.20
2022-09-27T23:28:56.960Z,29.30
2022-09-27T23:31:24.989Z,40.60
2022-09-27T23:33:52.732Z,20.08
2022-09-27T23:36:24.805Z,18.65
2022-09-27T23:38:58.824Z,20.40
2022-09-27T23:41:26.539Z,18.63
2022-09-27T23:43:55.163Z,34.83
2022-09-27T23:46:22.785Z,23.13
2022-09-27T23:48:50.761Z,25.35
2022-09-27T23:51:18.402Z,27.10
2022-09-27T23:53:46.031Z,19.73
2022-09-27T23:56:17.638Z,24.50
2022-09-27T23:58:45.852Z,23.83
